Página principal
METAR-TAF:

METAR-TAF

Aeroportos :

Majuro, Ilhas Marshall

latitude: 07-04N, longitude: 171-17E, altura: 2 m

Observação actual do tempo

O boletim foi feito há 1 hora e 38 minutos, às 10:59 UTC
Vento 15 kt de este
Temperatura 28°C
Humidade 84%
Pressão 1006 hPa
Visibilidade: 16.1 km
Nuvens dispersasa uma altura de 1400 ft, Cumulus congestus.
Nuvens fragmentadasa uma altura de 4500 ft
Encobertoa uma altura de 11000 ft
aguaceiros fracos de chuva

METAR: PKMJ 161059Z COR 08015KT 10SM -SHRA SCT014TCU BKN045 OVC110 28/25 A2972 RMK TCU ALQDS LAST

Hora: 00:37 (12:37 UTC)

Previsão

O boletim foi feito há 1 hora e 17 minutos, às 11:20 UTC
Previsão válida de 16 às 12 UTC a 17 às 12 UTC
Vento 15 kt de este
Visibilidade: 10 km
Nuvens dispersasa uma altura de 1400 ft
Nuvens fragmentadasa uma altura de 4500 ft
Encobertoa uma altura de 11000 ft
aguaceiros nas vizinhanças

TAF: PKMJ 161120Z 1612/1712 08015KT P6SM VCSH SCT014 BKN045 OVC110

Observações e previsões do tempo de mais de 4000 aeroportos (mensagens METAR e TAF).

As estações disponíveis são os pontos amarelos e vermelhos sobre o mapa.

Mova o rato sobre o mapa para ver o nome da estação.

Depois clique no ponto para visualizar as observações e previsões meteorológicas.

Para alterar o mapa : clique nos botões verdes com uma cruz preta para aumentar o zoom; no botão verde com uma pitada de zoom; ou nas setas verdes para mapas adjacentes.


METAR-TAF: